createdAt,value
2019-03-29T00:01:05.318Z,47.00
2019-03-29T00:03:41.185Z,47.00
2019-03-29T00:06:13.515Z,47.00
2019-03-29T00:08:43.161Z,47.00
2019-03-29T00:11:33.148Z,47.00
2019-03-29T00:14:02.932Z,46.90
2019-03-29T00:16:33.057Z,46.90
2019-03-29T00:19:15.503Z,46.90
2019-03-29T00:21:48.043Z,47.00
2019-03-29T00:24:33.684Z,46.90
2019-03-29T00:27:05.931Z,47.00
2019-03-29T00:29:35.132Z,47.00
2019-03-29T00:32:34.053Z,47.00
2019-03-29T00:35:03.669Z,46.90
2019-03-29T00:38:09.637Z,46.90
2019-03-29T00:41:10.958Z,46.80
2019-03-29T00:43:51.359Z,46.80
2019-03-29T00:46:21.885Z,46.90
2019-03-29T00:48:51.397Z,46.90
2019-03-29T00:51:30.917Z,46.90
2019-03-29T00:54:23.347Z,46.90
2019-03-29T00:57:02.609Z,46.90
2019-03-29T00:59:33.268Z,46.90
2019-03-29T01:02:06.439Z,46.80
2019-03-29T01:04:37.098Z,46.70
2019-03-29T01:07:08.070Z,46.70
2019-03-29T01:09:38.478Z,46.80
2019-03-29T01:12:08.066Z,46.90
2019-03-29T01:14:39.316Z,46.80
2019-03-29T01:17:09.201Z,46.70
2019-03-29T01:19:39.144Z,46.80
2019-03-29T01:22:44.423Z,46.80
2019-03-29T01:25:15.893Z,46.90
2019-03-29T01:27:45.400Z,46.90
2019-03-29T01:30:17.289Z,46.90
2019-03-29T01:36:04.845Z,46.80
2019-03-29T01:38:28.398Z,46.80
2019-03-29T01:40:58.024Z,46.70
2019-03-29T01:43:34.021Z,46.80
2019-03-29T01:46:03.400Z,46.80
2019-03-29T01:48:33.419Z,46.70
2019-03-29T01:51:09.284Z,46.70
2019-03-29T01:53:39.857Z,46.70
2019-03-29T01:56:31.243Z,46.70
2019-03-29T01:59:52.409Z,46.80
2019-03-29T02:05:19.003Z,46.70
2019-03-29T02:07:52.419Z,46.70
2019-03-29T02:10:31.434Z,46.80
2019-03-29T02:13:21.972Z,46.70
2019-03-29T02:16:24.425Z,46.70
2019-03-29T02:22:15.548Z,46.80
2019-03-29T02:24:57.880Z,46.80
2019-03-29T02:28:01.045Z,46.80
2019-03-29T02:30:58.853Z,46.90
2019-03-29T02:36:25.610Z,46.70
2019-03-29T02:39:04.990Z,46.80
2019-03-29T02:41:38.430Z,46.70
2019-03-29T02:44:20.222Z,46.70
2019-03-29T02:47:07.805Z,46.70
2019-03-29T02:49:49.186Z,46.70
2019-03-29T02:52:21.795Z,46.70
2019-03-29T02:54:51.224Z,46.70
2019-03-29T02:57:27.852Z,46.70
2019-03-29T02:59:57.300Z,46.70
2019-03-29T03:02:26.926Z,46.70
2019-03-29T03:05:09.049Z,46.70
2019-03-29T03:07:40.174Z,46.70
2019-03-29T03:13:02.246Z,46.70
2019-03-29T03:15:32.061Z,46.70
2019-03-29T03:18:01.839Z,46.70
2019-03-29T03:20:31.327Z,46.70
2019-03-29T03:25:56.839Z,46.70
2019-03-29T03:28:26.445Z,46.60
2019-03-29T03:30:57.746Z,46.70
2019-03-29T03:33:27.294Z,46.60
2019-03-29T03:35:56.936Z,46.60
2019-03-29T03:38:26.860Z,46.70
2019-03-29T03:40:57.044Z,46.60
2019-03-29T03:43:46.328Z,46.60
2019-03-29T03:46:16.095Z,46.70
2019-03-29T03:48:47.412Z,46.60
2019-03-29T03:51:23.467Z,46.60
2019-03-29T03:54:12.505Z,46.60
2019-03-29T03:56:30.267Z,46.60
2019-03-29T03:59:02.645Z,46.70
2019-03-29T04:01:39.586Z,46.60
2019-03-29T04:04:09.111Z,46.70
2019-03-29T04:06:39.169Z,46.70
2019-03-29T04:09:11.403Z,46.70
2019-03-29T04:11:52.312Z,46.70
2019-03-29T04:14:30.691Z,46.70
2019-03-29T04:17:15.594Z,46.60
2019-03-29T04:19:51.505Z,46.70
2019-03-29T04:22:30.275Z,46.60
2019-03-29T04:25:01.093Z,46.60
2019-03-29T04:27:51.312Z,46.70
2019-03-29T04:30:30.914Z,46.70
2019-03-29T04:33:12.103Z,46.60
2019-03-29T04:35:56.612Z,46.60
2019-03-29T04:38:27.683Z,46.60
2019-03-29T04:40:58.614Z,46.60
2019-03-29T04:43:27.962Z,46.60
2019-03-29T04:45:57.459Z,46.60
2019-03-29T04:48:35.716Z,46.60
2019-03-29T04:51:21.541Z,46.60
2019-03-29T04:54:17.978Z,46.60
2019-03-29T04:56:52.417Z,46.60
2019-03-29T04:59:22.043Z,46.60
2019-03-29T05:02:08.238Z,46.60
2019-03-29T05:04:40.894Z,46.60
2019-03-29T05:07:20.775Z,46.60
2019-03-29T05:12:49.827Z,46.50
2019-03-29T05:18:18.346Z,46.60
2019-03-29T05:20:58.313Z,46.70
2019-03-29T05:26:33.638Z,46.50
2019-03-29T05:29:09.672Z,46.50
2019-03-29T05:38:40.151Z,46.50
2019-03-29T05:41:11.176Z,46.50
2019-03-29T05:43:55.470Z,46.50
2019-03-29T05:46:36.651Z,46.50
2019-03-29T05:48:59.221Z,46.50
2019-03-29T05:51:28.632Z,46.40
2019-03-29T05:53:59.022Z,46.50
2019-03-29T05:56:47.532Z,46.60
2019-03-29T06:02:10.397Z,46.80
2019-03-29T06:04:41.922Z,47.60
2019-03-29T06:07:38.427Z,47.10
2019-03-29T06:10:14.766Z,47.40
2019-03-29T06:12:45.902Z,47.60
2019-03-29T06:15:30.888Z,48.00
2019-03-29T06:18:04.545Z,48.30
2019-03-29T06:20:34.438Z,48.40
2019-03-29T06:23:04.485Z,48.40
2019-03-29T06:25:35.246Z,48.60
2019-03-29T06:28:31.320Z,48.50
2019-03-29T06:31:19.125Z,48.50
2019-03-29T06:33:48.534Z,48.30
2019-03-29T06:36:28.478Z,48.10
2019-03-29T06:39:08.291Z,48.00
2019-03-29T06:44:45.966Z,47.60
2019-03-29T06:47:23.367Z,47.50
2019-03-29T06:50:14.728Z,47.30
2019-03-29T06:52:44.325Z,47.10
2019-03-29T06:55:15.370Z,47.00
2019-03-29T06:57:46.890Z,46.90
2019-03-29T07:00:18.793Z,46.70
2019-03-29T07:05:42.253Z,46.40
2019-03-29T07:08:19.454Z,46.30
2019-03-29T07:11:16.224Z,46.10
2019-03-29T07:13:33.821Z,46.00
2019-03-29T07:16:13.508Z,45.90
2019-03-29T07:18:44.341Z,45.80
2019-03-29T07:21:44.279Z,45.70
2019-03-29T07:24:16.140Z,45.60
2019-03-29T07:26:46.690Z,45.50
2019-03-29T07:29:20.522Z,45.40
2019-03-29T07:31:53.054Z,45.30
2019-03-29T07:34:38.202Z,45.20
2019-03-29T07:37:08.194Z,45.10
2019-03-29T07:39:39.774Z,45.10
2019-03-29T07:42:11.888Z,45.10
2019-03-29T07:47:20.993Z,45.10
2019-03-29T07:49:52.878Z,45.10
2019-03-29T07:52:25.854Z,45.10
2019-03-29T07:55:15.977Z,45.00
2019-03-29T07:57:45.523Z,44.80
2019-03-29T08:00:20.205Z,44.70
2019-03-29T08:02:48.237Z,44.50
2019-03-29T08:05:18.130Z,44.40
2019-03-29T08:07:49.470Z,44.30
2019-03-29T08:13:20.024Z,44.10
2019-03-29T08:15:50.112Z,44.00
2019-03-29T08:18:19.763Z,43.90
2019-03-29T08:20:49.434Z,43.80
2019-03-29T08:23:19.466Z,43.80
2019-03-29T08:25:49.283Z,43.70
2019-03-29T08:28:19.035Z,43.70
2019-03-29T08:33:24.599Z,43.70
2019-03-29T08:35:56.225Z,43.80
2019-03-29T08:38:26.787Z,44.00
2019-03-29T08:40:57.582Z,44.10
2019-03-29T08:43:36.061Z,44.30
2019-03-29T08:46:05.575Z,44.40
2019-03-29T08:51:16.537Z,44.30
2019-03-29T08:53:46.511Z,44.40
2019-03-29T08:56:17.638Z,44.50
2019-03-29T08:58:49.646Z,44.60
2019-03-29T09:01:19.791Z,44.50
2019-03-29T09:04:09.413Z,44.40
2019-03-29T09:06:52.676Z,44.40
2019-03-29T09:09:15.723Z,44.30
2019-03-29T09:23:35.478Z,43.30
2019-03-29T09:26:05.824Z,43.30
2019-03-29T09:28:43.226Z,43.10
2019-03-29T09:33:51.766Z,42.80
2019-03-29T09:36:21.729Z,42.60
2019-03-29T09:38:52.628Z,42.60
2019-03-29T09:44:08.938Z,42.30
2019-03-29T09:52:32.978Z,42.00
2019-03-29T09:55:02.539Z,42.10
2019-03-29T10:00:33.287Z,42.60
2019-03-29T10:03:08.552Z,43.00
2019-03-29T10:06:19.121Z,43.30
2019-03-29T10:32:22.019Z,43.70
2019-03-29T10:40:27.635Z,43.30
2019-03-29T10:42:58.491Z,43.20
2019-03-29T10:51:24.694Z,43.30
2019-03-29T10:53:55.598Z,43.30
2019-03-29T10:56:34.452Z,43.50
2019-03-29T10:59:06.875Z,43.70
2019-03-29T11:04:42.740Z,43.90
2019-03-29T11:07:17.995Z,44.00
2019-03-29T11:09:50.478Z,44.00
2019-03-29T11:15:52.231Z,44.10
2019-03-29T11:18:22.049Z,44.60
2019-03-29T11:20:52.911Z,43.80
2019-03-29T11:23:22.900Z,43.60
2019-03-29T11:25:54.498Z,43.50
2019-03-29T11:28:23.954Z,43.40
2019-03-29T11:31:16.866Z,43.30
2019-03-29T11:36:44.746Z,43.40
2019-03-29T11:39:14.625Z,43.40
2019-03-29T11:44:30.493Z,43.50
2019-03-29T11:47:00.250Z,43.60
2019-03-29T11:49:32.837Z,43.70
2019-03-29T11:52:02.266Z,43.70
2019-03-29T11:54:31.795Z,43.70
2019-03-29T11:57:01.846Z,44.20
2019-03-29T11:59:34.202Z,44.90
2019-03-29T12:02:03.630Z,45.30
2019-03-29T12:04:36.485Z,45.80
2019-03-29T12:07:09.600Z,47.40
2019-03-29T12:09:56.799Z,49.00
2019-03-29T12:12:27.711Z,49.80
2019-03-29T12:15:03.388Z,50.60
2019-03-29T12:17:33.087Z,50.90
2019-03-29T12:20:02.845Z,51.20
2019-03-29T12:22:37.307Z,50.90
2019-03-29T12:25:06.939Z,49.80
2019-03-29T12:27:36.275Z,49.70
2019-03-29T12:30:31.343Z,50.50
2019-03-29T12:35:54.069Z,50.80
2019-03-29T12:38:38.097Z,50.40
2019-03-29T12:41:19.306Z,49.50
2019-03-29T12:43:55.865Z,48.90
2019-03-29T12:46:32.443Z,48.80
2019-03-29T12:49:02.026Z,48.40
2019-03-29T12:51:31.764Z,48.10
2019-03-29T12:54:01.718Z,48.00
2019-03-29T12:59:37.468Z,47.10
2019-03-29T13:02:07.292Z,46.60
2019-03-29T13:04:36.711Z,46.40
2019-03-29T13:10:56.920Z,45.80
2019-03-29T13:13:41.063Z,45.70
2019-03-29T13:16:10.951Z,45.50
2019-03-29T13:18:47.651Z,45.30
2019-03-29T13:21:17.163Z,45.20
2019-03-29T13:23:46.544Z,45.10
2019-03-29T13:29:07.871Z,44.90
2019-03-29T13:31:38.306Z,44.80
2019-03-29T13:34:08.068Z,44.80
2019-03-29T13:36:41.497Z,44.80
2019-03-29T13:39:38.261Z,44.70
2019-03-29T13:42:07.910Z,44.60
2019-03-29T13:44:37.353Z,44.60
2019-03-29T13:52:24.001Z,44.70
2019-03-29T13:55:15.374Z,44.70
2019-03-29T13:57:44.922Z,44.60
2019-03-29T14:00:14.598Z,44.40
2019-03-29T14:02:45.785Z,44.20
2019-03-29T14:05:15.491Z,44.10
2019-03-29T14:08:08.281Z,44.00
2019-03-29T14:10:37.833Z,43.90
2019-03-29T14:13:09.003Z,43.90
2019-03-29T14:15:38.990Z,43.90
2019-03-29T14:18:11.008Z,43.90
2019-03-29T14:23:26.411Z,43.80
2019-03-29T14:25:55.978Z,43.90
2019-03-29T14:28:25.728Z,44.00
2019-03-29T14:31:00.745Z,44.10
2019-03-29T14:33:34.995Z,44.10
2019-03-29T14:36:04.447Z,44.20
2019-03-29T14:38:34.886Z,44.20
2019-03-29T14:41:04.666Z,44.30
2019-03-29T14:43:34.364Z,44.30
2019-03-29T14:46:03.850Z,44.40
2019-03-29T14:48:33.310Z,44.40
2019-03-29T14:51:03.104Z,44.30
2019-03-29T14:53:34.116Z,45.00
2019-03-29T14:56:04.069Z,45.00
2019-03-29T15:01:56.376Z,44.40
2019-03-29T15:04:29.438Z,44.40
2019-03-29T15:07:02.588Z,44.50
2019-03-29T15:09:37.858Z,44.50
2019-03-29T15:12:29.078Z,44.50
2019-03-29T15:15:05.995Z,44.40
2019-03-29T15:17:29.826Z,44.40
2019-03-29T15:20:18.466Z,44.50
2019-03-29T15:22:48.152Z,44.40
2019-03-29T15:28:37.263Z,44.30
2019-03-29T15:31:26.555Z,44.30
2019-03-29T15:34:20.897Z,44.30
2019-03-29T15:36:52.040Z,44.30
2019-03-29T15:39:24.224Z,44.30
2019-03-29T15:41:54.043Z,44.30
2019-03-29T15:44:23.659Z,44.30
2019-03-29T15:47:02.232Z,44.30
2019-03-29T15:52:21.098Z,44.20
2019-03-29T15:54:52.588Z,44.20
2019-03-29T15:57:51.404Z,44.20
2019-03-29T16:00:28.337Z,44.20
2019-03-29T16:03:02.937Z,44.20
2019-03-29T16:05:39.887Z,44.20
2019-03-29T16:11:32.340Z,44.20
2019-03-29T16:14:04.095Z,44.20
2019-03-29T16:19:14.957Z,44.30
2019-03-29T16:21:50.198Z,44.40
2019-03-29T16:27:16.798Z,44.60
2019-03-29T16:29:50.504Z,44.50
2019-03-29T16:32:42.167Z,44.50
2019-03-29T16:37:58.628Z,44.60
2019-03-29T16:40:31.981Z,44.60
2019-03-29T16:43:28.417Z,44.60
2019-03-29T16:46:02.934Z,44.60
2019-03-29T16:51:37.637Z,44.60
2019-03-29T17:00:52.060Z,44.70
2019-03-29T17:03:30.992Z,44.80
2019-03-29T17:06:09.421Z,44.80
2019-03-29T17:08:47.616Z,44.90
2019-03-29T17:11:22.293Z,44.90
2019-03-29T17:13:53.869Z,44.90
2019-03-29T17:19:37.742Z,44.90
2019-03-29T17:25:02.827Z,44.90
2019-03-29T17:27:32.606Z,45.00
2019-03-29T17:30:35.246Z,45.00
2019-03-29T17:33:05.495Z,45.00
2019-03-29T17:38:54.644Z,45.00
2019-03-29T17:41:31.017Z,45.10
2019-03-29T17:44:00.975Z,45.00
2019-03-29T17:46:33.116Z,45.10
2019-03-29T17:49:03.767Z,45.70
2019-03-29T17:51:40.136Z,45.30
2019-03-29T17:54:09.771Z,45.50
2019-03-29T18:02:13.941Z,45.60
2019-03-29T18:04:45.697Z,45.40
2019-03-29T18:10:02.079Z,45.20
2019-03-29T18:15:08.588Z,45.60
2019-03-29T18:17:42.593Z,45.50
2019-03-29T18:20:14.768Z,45.50
2019-03-29T18:22:58.759Z,45.60
2019-03-29T18:25:31.853Z,45.70
2019-03-29T18:30:54.378Z,45.60
2019-03-29T18:39:23.145Z,45.30
2019-03-29T18:41:57.644Z,45.50
2019-03-29T18:44:28.402Z,45.50
2019-03-29T18:52:34.981Z,45.80
2019-03-29T18:55:23.737Z,45.70
2019-03-29T19:00:48.677Z,45.80
2019-03-29T19:03:18.868Z,45.80
2019-03-29T19:05:55.965Z,45.70
2019-03-29T19:08:31.695Z,45.70
2019-03-29T19:11:01.217Z,45.70
2019-03-29T19:13:31.057Z,45.70
2019-03-29T19:16:00.842Z,45.60
2019-03-29T19:18:30.547Z,45.60
2019-03-29T19:21:00.267Z,45.60
2019-03-29T19:23:32.141Z,45.60
2019-03-29T19:26:01.709Z,45.50
2019-03-29T19:28:34.122Z,45.50
2019-03-29T19:31:08.150Z,45.50
2019-03-29T19:33:40.422Z,45.50
2019-03-29T19:36:10.127Z,45.40
2019-03-29T19:38:41.421Z,45.40
2019-03-29T19:41:11.477Z,45.50
2019-03-29T19:43:42.160Z,45.40
2019-03-29T19:46:19.474Z,45.40
2019-03-29T19:48:54.294Z,45.50
2019-03-29T19:54:19.561Z,45.40
2019-03-29T19:56:58.918Z,45.30
2019-03-29T19:59:48.002Z,45.30
2019-03-29T20:02:05.468Z,45.30
2019-03-29T20:04:44.067Z,45.40
2019-03-29T20:07:14.628Z,45.30
2019-03-29T20:12:38.256Z,45.20
2019-03-29T20:18:29.658Z,45.20
2019-03-29T20:21:01.336Z,45.20
2019-03-29T20:23:32.292Z,45.10
2019-03-29T20:26:03.646Z,45.10
2019-03-29T20:28:51.805Z,45.00
2019-03-29T20:31:23.331Z,45.00
2019-03-29T20:33:55.005Z,45.00
2019-03-29T20:36:24.932Z,45.00
2019-03-29T20:38:55.020Z,45.10
2019-03-29T20:41:29.405Z,45.00
2019-03-29T20:44:06.094Z,44.90
2019-03-29T20:46:45.282Z,45.00
2019-03-29T20:49:22.807Z,45.00
2019-03-29T20:51:52.584Z,45.00
2019-03-29T20:54:41.258Z,45.00
2019-03-29T21:00:01.368Z,45.00
2019-03-29T21:02:32.046Z,44.90
2019-03-29T21:05:02.050Z,44.80
2019-03-29T21:10:38.298Z,44.70
2019-03-29T21:13:13.154Z,44.80
2019-03-29T21:15:49.970Z,44.80
2019-03-29T21:18:22.058Z,44.80
2019-03-29T21:20:56.874Z,44.80
2019-03-29T21:23:30.707Z,44.90
2019-03-29T21:26:18.366Z,44.90
2019-03-29T21:28:52.623Z,45.00
2019-03-29T21:31:27.361Z,44.90
2019-03-29T21:33:58.951Z,44.90
2019-03-29T21:36:31.087Z,44.90
2019-03-29T21:39:16.698Z,44.80
2019-03-29T21:41:51.525Z,45.00
2019-03-29T21:44:35.983Z,44.90
2019-03-29T21:47:05.369Z,44.90
2019-03-29T21:49:38.265Z,44.80
2019-03-29T21:52:09.342Z,44.80
2019-03-29T21:54:47.652Z,44.80
2019-03-29T21:57:28.350Z,44.80
2019-03-29T22:00:02.718Z,44.80
2019-03-29T22:02:35.544Z,44.80
2019-03-29T22:05:10.519Z,44.70
2019-03-29T22:07:44.909Z,44.80
2019-03-29T22:10:32.195Z,44.70
2019-03-29T22:13:06.167Z,44.80
2019-03-29T22:18:51.698Z,44.70
2019-03-29T22:21:49.550Z,44.80
2019-03-29T22:24:31.265Z,44.70
2019-03-29T22:27:13.296Z,44.80
2019-03-29T22:29:42.831Z,44.70
2019-03-29T22:32:12.426Z,44.80
2019-03-29T22:34:42.547Z,45.30
2019-03-29T22:37:35.775Z,44.70
2019-03-29T22:42:42.524Z,44.70
2019-03-29T22:45:21.869Z,44.70
2019-03-29T22:48:24.428Z,44.60
2019-03-29T22:51:14.681Z,44.60
2019-03-29T22:53:44.563Z,44.60
2019-03-29T22:56:26.724Z,44.60
2019-03-29T22:58:56.478Z,44.60
2019-03-29T23:01:54.123Z,44.60
2019-03-29T23:04:23.728Z,44.60
2019-03-29T23:06:58.074Z,44.50
2019-03-29T23:13:06.570Z,44.50
2019-03-29T23:15:33.416Z,44.60
2019-03-29T23:18:24.048Z,44.60
2019-03-29T23:20:59.135Z,44.60
2019-03-29T23:23:30.557Z,44.60
2019-03-29T23:26:21.463Z,44.60
2019-03-29T23:28:52.816Z,44.60
2019-03-29T23:34:09.556Z,44.60
2019-03-29T23:39:36.891Z,44.50
2019-03-29T23:42:07.278Z,44.50
2019-03-29T23:45:05.296Z,44.50
2019-03-29T23:50:21.857Z,44.60
2019-03-29T23:52:56.881Z,44.50
2019-03-29T23:55:26.722Z,44.50
2019-03-29T23:58:15.920Z,44.60
